sensor_id;sensor_type;location;lat;lon;timestamp;P1;durP1;ratioP1;P2;durP2;ratioP2
59587;SDS011;45412;54.472;18.464;2022-12-31T00:03:06;16.20;;;6.60;;
59587;SDS011;45412;54.472;18.464;2022-12-31T00:05:56;20.20;;;6.90;;
59587;SDS011;45412;54.472;18.464;2022-12-31T00:08:46;14.10;;;5.60;;
59587;SDS011;45412;54.472;18.464;2022-12-31T00:11:35;15.80;;;6.10;;
59587;SDS011;45412;54.472;18.464;2022-12-31T00:14:25;15.50;;;6.20;;
59587;SDS011;45412;54.472;18.464;2022-12-31T00:17:13;16.10;;;6.80;;
59587;SDS011;45412;54.472;18.464;2022-12-31T00:20:03;13.10;;;6.10;;
59587;SDS011;45412;54.472;18.464;2022-12-31T00:22:52;15.60;;;6.50;;
59587;SDS011;45412;54.472;18.464;2022-12-31T00:25:40;14.00;;;5.80;;
59587;SDS011;45412;54.472;18.464;2022-12-31T00:28:28;15.10;;;5.20;;
59587;SDS011;45412;54.472;18.464;2022-12-31T00:31:25;16.70;;;6.00;;
59587;SDS011;45412;54.472;18.464;2022-12-31T00:34:15;17.00;;;6.70;;
59587;SDS011;45412;54.472;18.464;2022-12-31T00:37:04;15.30;;;6.60;;
59587;SDS011;45412;54.472;18.464;2022-12-31T00:39:51;15.60;;;6.50;;
59587;SDS011;45412;54.472;18.464;2022-12-31T00:42:40;13.50;;;5.80;;
59587;SDS011;45412;54.472;18.464;2022-12-31T00:45:29;15.50;;;5.50;;
59587;SDS011;45412;54.472;18.464;2022-12-31T00:48:17;13.80;;;5.80;;
59587;SDS011;45412;54.472;18.464;2022-12-31T00:51:07;17.50;;;6.00;;
59587;SDS011;45412;54.472;18.464;2022-12-31T00:54:04;16.30;;;9.50;;
59587;SDS011;45412;54.472;18.464;2022-12-31T00:56:52;16.50;;;7.00;;
59587;SDS011;45412;54.472;18.464;2022-12-31T00:59:41;15.70;;;7.10;;
59587;SDS011;45412;54.472;18.464;2022-12-31T01:02:30;16.30;;;7.40;;
59587;SDS011;45412;54.472;18.464;2022-12-31T01:05:19;13.60;;;6.30;;
59587;SDS011;45412;54.472;18.464;2022-12-31T01:08:08;17.50;;;6.30;;
59587;SDS011;45412;54.472;18.464;2022-12-31T01:10:57;15.10;;;5.80;;
59587;SDS011;45412;54.472;18.464;2022-12-31T01:14:11;16.40;;;7.10;;
59587;SDS011;45412;54.472;18.464;2022-12-31T01:17:01;14.10;;;6.10;;
59587;SDS011;45412;54.472;18.464;2022-12-31T01:19:50;16.30;;;7.10;;
59587;SDS011;45412;54.472;18.464;2022-12-31T01:22:39;15.10;;;5.60;;
59587;SDS011;45412;54.472;18.464;2022-12-31T01:25:27;16.90;;;6.00;;
59587;SDS011;45412;54.472;18.464;2022-12-31T01:28:16;15.70;;;6.70;;
59587;SDS011;45412;54.472;18.464;2022-12-31T01:31:06;18.70;;;6.40;;
59587;SDS011;45412;54.472;18.464;2022-12-31T01:33:57;14.60;;;6.30;;
59587;SDS011;45412;54.472;18.464;2022-12-31T01:36:45;14.50;;;6.20;;
59587;SDS011;45412;54.472;18.464;2022-12-31T01:39:33;14.00;;;4.70;;
59587;SDS011;45412;54.472;18.464;2022-12-31T01:42:22;13.60;;;5.80;;
59587;SDS011;45412;54.472;18.464;2022-12-31T01:45:13;17.60;;;6.20;;
59587;SDS011;45412;54.472;18.464;2022-12-31T01:48:01;16.90;;;7.20;;
59587;SDS011;45412;54.472;18.464;2022-12-31T01:50:50;16.40;;;6.40;;
59587;SDS011;45412;54.472;18.464;2022-12-31T01:53:40;19.80;;;6.50;;
59587;SDS011;45412;54.472;18.464;2022-12-31T01:56:30;16.30;;;6.70;;
59587;SDS011;45412;54.472;18.464;2022-12-31T01:59:18;16.60;;;6.40;;
59587;SDS011;45412;54.472;18.464;2022-12-31T02:02:08;12.70;;;5.60;;
59587;SDS011;45412;54.472;18.464;2022-12-31T02:04:58;13.10;;;5.80;;
59587;SDS011;45412;54.472;18.464;2022-12-31T02:07:50;16.00;;;6.30;;
59587;SDS011;45412;54.472;18.464;2022-12-31T02:10:40;14.20;;;6.60;;
59587;SDS011;45412;54.472;18.464;2022-12-31T02:13:29;18.30;;;6.60;;
59587;SDS011;45412;54.472;18.464;2022-12-31T02:30:08;15.40;;;5.80;;
59587;SDS011;45412;54.472;18.464;2022-12-31T02:33:19;17.90;;;6.10;;
59587;SDS011;45412;54.472;18.464;2022-12-31T02:36:21;14.90;;;6.00;;
59587;SDS011;45412;54.472;18.464;2022-12-31T02:39:13;12.20;;;5.20;;
59587;SDS011;45412;54.472;18.464;2022-12-31T02:42:02;15.10;;;5.60;;
59587;SDS011;45412;54.472;18.464;2022-12-31T02:44:51;14.60;;;5.80;;
59587;SDS011;45412;54.472;18.464;2022-12-31T02:51:25;13.80;;;5.20;;
59587;SDS011;45412;54.472;18.464;2022-12-31T03:00:54;15.00;;;5.90;;
59587;SDS011;45412;54.472;18.464;2022-12-31T03:04:04;14.60;;;5.50;;
59587;SDS011;45412;54.472;18.464;2022-12-31T03:07:17;14.50;;;5.30;;
59587;SDS011;45412;54.472;18.464;2022-12-31T03:10:08;15.00;;;4.80;;
59587;SDS011;45412;54.472;18.464;2022-12-31T03:12:57;14.00;;;5.40;;
59587;SDS011;45412;54.472;18.464;2022-12-31T03:15:45;13.60;;;5.90;;
59587;SDS011;45412;54.472;18.464;2022-12-31T03:18:34;12.60;;;5.30;;
59587;SDS011;45412;54.472;18.464;2022-12-31T03:21:41;11.60;;;5.20;;
59587;SDS011;45412;54.472;18.464;2022-12-31T03:24:48;12.80;;;4.70;;
59587;SDS011;45412;54.472;18.464;2022-12-31T03:27:57;11.00;;;5.20;;
59587;SDS011;45412;54.472;18.464;2022-12-31T03:30:53;11.50;;;4.60;;
59587;SDS011;45412;54.472;18.464;2022-12-31T03:33:43;11.70;;;5.40;;
59587;SDS011;45412;54.472;18.464;2022-12-31T03:36:31;12.00;;;4.80;;
59587;SDS011;45412;54.472;18.464;2022-12-31T03:39:20;13.30;;;5.10;;
59587;SDS011;45412;54.472;18.464;2022-12-31T03:42:08;38.40;;;6.00;;
59587;SDS011;45412;54.472;18.464;2022-12-31T03:44:56;9.90;;;4.70;;
59587;SDS011;45412;54.472;18.464;2022-12-31T03:47:44;12.20;;;5.20;;
59587;SDS011;45412;54.472;18.464;2022-12-31T03:50:33;11.70;;;5.50;;
59587;SDS011;45412;54.472;18.464;2022-12-31T03:53:22;13.70;;;5.10;;
59587;SDS011;45412;54.472;18.464;2022-12-31T03:56:11;12.80;;;5.50;;
59587;SDS011;45412;54.472;18.464;2022-12-31T03:58:58;11.50;;;5.40;;
59587;SDS011;45412;54.472;18.464;2022-12-31T04:01:47;13.80;;;5.60;;
59587;SDS011;45412;54.472;18.464;2022-12-31T04:04:35;12.90;;;4.90;;
59587;SDS011;45412;54.472;18.464;2022-12-31T04:07:24;12.10;;;4.40;;
59587;SDS011;45412;54.472;18.464;2022-12-31T04:10:13;11.20;;;6.40;;
59587;SDS011;45412;54.472;18.464;2022-12-31T04:13:03;11.80;;;5.00;;
59587;SDS011;45412;54.472;18.464;2022-12-31T04:15:51;13.50;;;5.00;;
59587;SDS011;45412;54.472;18.464;2022-12-31T04:18:39;13.20;;;6.40;;
59587;SDS011;45412;54.472;18.464;2022-12-31T04:21:27;10.70;;;5.30;;
59587;SDS011;45412;54.472;18.464;2022-12-31T04:24:21;11.20;;;4.60;;
59587;SDS011;45412;54.472;18.464;2022-12-31T04:27:11;11.20;;;5.00;;
59587;SDS011;45412;54.472;18.464;2022-12-31T04:30:00;13.20;;;5.90;;
59587;SDS011;45412;54.472;18.464;2022-12-31T04:32:48;14.40;;;5.60;;
59587;SDS011;45412;54.472;18.464;2022-12-31T04:35:36;12.30;;;5.60;;
59587;SDS011;45412;54.472;18.464;2022-12-31T04:38:25;10.20;;;4.80;;
59587;SDS011;45412;54.472;18.464;2022-12-31T04:41:13;13.00;;;5.50;;
59587;SDS011;45412;54.472;18.464;2022-12-31T04:44:05;12.40;;;5.90;;
59587;SDS011;45412;54.472;18.464;2022-12-31T04:46:54;11.30;;;5.50;;
59587;SDS011;45412;54.472;18.464;2022-12-31T04:49:42;11.60;;;5.60;;
59587;SDS011;45412;54.472;18.464;2022-12-31T04:52:30;11.60;;;4.90;;
59587;SDS011;45412;54.472;18.464;2022-12-31T04:55:27;12.00;;;5.30;;
59587;SDS011;45412;54.472;18.464;2022-12-31T04:58:16;12.60;;;5.90;;
59587;SDS011;45412;54.472;18.464;2022-12-31T05:01:05;11.50;;;5.70;;
59587;SDS011;45412;54.472;18.464;2022-12-31T05:03:54;12.00;;;5.40;;
59587;SDS011;45412;54.472;18.464;2022-12-31T05:06:42;13.90;;;5.90;;
59587;SDS011;45412;54.472;18.464;2022-12-31T05:09:31;12.80;;;5.90;;
59587;SDS011;45412;54.472;18.464;2022-12-31T05:12:20;11.50;;;6.10;;
59587;SDS011;45412;54.472;18.464;2022-12-31T05:15:08;10.60;;;5.80;;
59587;SDS011;45412;54.472;18.464;2022-12-31T05:17:57;13.30;;;6.30;;
59587;SDS011;45412;54.472;18.464;2022-12-31T05:20:48;12.10;;;5.70;;
59587;SDS011;45412;54.472;18.464;2022-12-31T05:23:37;11.10;;;5.80;;
59587;SDS011;45412;54.472;18.464;2022-12-31T05:26:25;13.40;;;6.50;;
59587;SDS011;45412;54.472;18.464;2022-12-31T05:29:14;12.60;;;5.90;;
59587;SDS011;45412;54.472;18.464;2022-12-31T05:32:03;13.80;;;6.30;;
59587;SDS011;45412;54.472;18.464;2022-12-31T05:34:51;14.50;;;6.80;;
59587;SDS011;45412;54.472;18.464;2022-12-31T05:37:40;13.40;;;6.90;;
59587;SDS011;45412;54.472;18.464;2022-12-31T05:40:28;12.50;;;6.20;;
59587;SDS011;45412;54.472;18.464;2022-12-31T05:43:17;12.60;;;6.40;;
59587;SDS011;45412;54.472;18.464;2022-12-31T05:46:05;14.10;;;6.90;;
59587;SDS011;45412;54.472;18.464;2022-12-31T05:48:54;16.50;;;7.10;;
59587;SDS011;45412;54.472;18.464;2022-12-31T05:51:42;13.50;;;6.90;;
59587;SDS011;45412;54.472;18.464;2022-12-31T05:54:33;16.80;;;6.90;;
59587;SDS011;45412;54.472;18.464;2022-12-31T05:57:23;15.90;;;7.20;;
59587;SDS011;45412;54.472;18.464;2022-12-31T06:00:12;12.00;;;6.20;;
59587;SDS011;45412;54.472;18.464;2022-12-31T06:03:00;13.90;;;6.70;;
59587;SDS011;45412;54.472;18.464;2022-12-31T06:05:50;11.70;;;5.70;;
59587;SDS011;45412;54.472;18.464;2022-12-31T06:08:38;14.30;;;6.80;;
59587;SDS011;45412;54.472;18.464;2022-12-31T06:11:29;11.80;;;6.30;;
59587;SDS011;45412;54.472;18.464;2022-12-31T06:14:17;12.60;;;6.30;;
59587;SDS011;45412;54.472;18.464;2022-12-31T06:17:05;13.00;;;6.60;;
59587;SDS011;45412;54.472;18.464;2022-12-31T06:19:54;13.60;;;6.30;;
59587;SDS011;45412;54.472;18.464;2022-12-31T06:22:44;12.10;;;6.40;;
59587;SDS011;45412;54.472;18.464;2022-12-31T06:25:33;13.30;;;7.20;;
59587;SDS011;45412;54.472;18.464;2022-12-31T06:28:23;12.00;;;6.60;;
59587;SDS011;45412;54.472;18.464;2022-12-31T06:31:13;13.30;;;6.90;;
59587;SDS011;45412;54.472;18.464;2022-12-31T06:34:02;15.20;;;7.80;;
59587;SDS011;45412;54.472;18.464;2022-12-31T06:36:51;13.30;;;6.00;;
59587;SDS011;45412;54.472;18.464;2022-12-31T06:39:39;14.40;;;7.10;;
59587;SDS011;45412;54.472;18.464;2022-12-31T06:42:28;12.20;;;6.30;;
59587;SDS011;45412;54.472;18.464;2022-12-31T06:45:18;12.20;;;6.50;;
59587;SDS011;45412;54.472;18.464;2022-12-31T06:48:06;12.90;;;7.20;;
59587;SDS011;45412;54.472;18.464;2022-12-31T06:50:55;14.30;;;6.20;;
59587;SDS011;45412;54.472;18.464;2022-12-31T06:53:46;13.40;;;6.80;;
59587;SDS011;45412;54.472;18.464;2022-12-31T06:56:36;12.90;;;6.30;;
59587;SDS011;45412;54.472;18.464;2022-12-31T06:59:26;13.30;;;6.30;;
59587;SDS011;45412;54.472;18.464;2022-12-31T07:05:41;15.20;;;6.70;;
59587;SDS011;45412;54.472;18.464;2022-12-31T07:21:57;13.60;;;6.20;;
59587;SDS011;45412;54.472;18.464;2022-12-31T07:24:46;12.80;;;6.60;;
59587;SDS011;45412;54.472;18.464;2022-12-31T07:42:00;12.00;;;5.90;;
59587;SDS011;45412;54.472;18.464;2022-12-31T07:45:18;10.70;;;5.90;;
59587;SDS011;45412;54.472;18.464;2022-12-31T07:48:24;12.50;;;6.00;;
59587;SDS011;45412;54.472;18.464;2022-12-31T07:51:15;14.90;;;6.60;;
59587;SDS011;45412;54.472;18.464;2022-12-31T07:54:03;12.50;;;6.20;;
59587;SDS011;45412;54.472;18.464;2022-12-31T07:57:00;12.00;;;5.50;;
59587;SDS011;45412;54.472;18.464;2022-12-31T08:03:16;11.50;;;5.30;;
59587;SDS011;45412;54.472;18.464;2022-12-31T08:12:49;12.60;;;5.70;;
59587;SDS011;45412;54.472;18.464;2022-12-31T08:15:43;11.70;;;6.00;;
59587;SDS011;45412;54.472;18.464;2022-12-31T08:18:32;13.60;;;5.60;;
59587;SDS011;45412;54.472;18.464;2022-12-31T08:27:42;13.80;;;5.80;;
59587;SDS011;45412;54.472;18.464;2022-12-31T08:37:22;11.20;;;5.00;;
59587;SDS011;45412;54.472;18.464;2022-12-31T08:46:58;11.20;;;6.10;;
59587;SDS011;45412;54.472;18.464;2022-12-31T08:49:49;9.50;;;5.40;;
59587;SDS011;45412;54.472;18.464;2022-12-31T08:52:38;10.30;;;5.60;;
59587;SDS011;45412;54.472;18.464;2022-12-31T08:55:27;11.20;;;5.20;;
59587;SDS011;45412;54.472;18.464;2022-12-31T09:08:03;11.90;;;5.70;;
59587;SDS011;45412;54.472;18.464;2022-12-31T09:11:19;11.90;;;5.60;;
59587;SDS011;45412;54.472;18.464;2022-12-31T09:14:41;9.30;;;5.30;;
59587;SDS011;45412;54.472;18.464;2022-12-31T09:20:33;11.40;;;5.30;;
59587;SDS011;45412;54.472;18.464;2022-12-31T09:23:31;10.10;;;5.40;;
59587;SDS011;45412;54.472;18.464;2022-12-31T09:26:56;11.50;;;5.40;;
59587;SDS011;45412;54.472;18.464;2022-12-31T09:36:28;10.10;;;5.00;;
59587;SDS011;45412;54.472;18.464;2022-12-31T09:39:40;10.10;;;4.90;;
59587;SDS011;45412;54.472;18.464;2022-12-31T09:46:32;10.20;;;5.00;;
59587;SDS011;45412;54.472;18.464;2022-12-31T09:49:44;9.10;;;4.30;;
59587;SDS011;45412;54.472;18.464;2022-12-31T09:53:11;9.30;;;4.60;;
59587;SDS011;45412;54.472;18.464;2022-12-31T09:56:29;8.90;;;4.40;;
59587;SDS011;45412;54.472;18.464;2022-12-31T09:59:39;9.80;;;5.00;;
59587;SDS011;45412;54.472;18.464;2022-12-31T10:03:15;12.00;;;4.90;;
59587;SDS011;45412;54.472;18.464;2022-12-31T10:13:07;11.30;;;5.70;;
59587;SDS011;45412;54.472;18.464;2022-12-31T10:19:50;11.90;;;5.60;;
59587;SDS011;45412;54.472;18.464;2022-12-31T10:22:56;13.10;;;6.20;;
59587;SDS011;45412;54.472;18.464;2022-12-31T10:35:50;11.20;;;6.10;;
59587;SDS011;45412;54.472;18.464;2022-12-31T10:55:27;10.80;;;6.10;;
59587;SDS011;45412;54.472;18.464;2022-12-31T11:07:41;11.70;;;5.90;;
59587;SDS011;45412;54.472;18.464;2022-12-31T11:23:53;10.90;;;6.00;;
59587;SDS011;45412;54.472;18.464;2022-12-31T11:37:08;9.40;;;4.80;;
59587;SDS011;45412;54.472;18.464;2022-12-31T11:40:40;10.80;;;5.80;;
59587;SDS011;45412;54.472;18.464;2022-12-31T11:53:33;10.80;;;9.10;;
59587;SDS011;45412;54.472;18.464;2022-12-31T11:56:26;10.50;;;5.80;;
59587;SDS011;45412;54.472;18.464;2022-12-31T11:59:20;10.90;;;4.70;;
59587;SDS011;45412;54.472;18.464;2022-12-31T12:02:29;10.50;;;5.10;;
59587;SDS011;45412;54.472;18.464;2022-12-31T12:05:23;9.70;;;5.50;;
59587;SDS011;45412;54.472;18.464;2022-12-31T12:08:13;11.60;;;5.40;;
59587;SDS011;45412;54.472;18.464;2022-12-31T12:11:12;9.90;;;5.40;;
59587;SDS011;45412;54.472;18.464;2022-12-31T12:14:25;11.00;;;5.40;;
59587;SDS011;45412;54.472;18.464;2022-12-31T12:17:27;10.40;;;5.10;;
59587;SDS011;45412;54.472;18.464;2022-12-31T12:20:29;10.30;;;4.80;;
59587;SDS011;45412;54.472;18.464;2022-12-31T12:23:24;10.80;;;4.80;;
59587;SDS011;45412;54.472;18.464;2022-12-31T12:29:32;10.00;;;4.70;;
59587;SDS011;45412;54.472;18.464;2022-12-31T12:32:24;11.20;;;4.10;;
59587;SDS011;45412;54.472;18.464;2022-12-31T12:35:15;9.50;;;4.40;;
59587;SDS011;45412;54.472;18.464;2022-12-31T12:38:17;9.50;;;4.30;;
59587;SDS011;45412;54.472;18.464;2022-12-31T12:41:22;9.50;;;4.00;;
59587;SDS011;45412;54.472;18.464;2022-12-31T12:44:15;9.10;;;3.60;;
59587;SDS011;45412;54.472;18.464;2022-12-31T12:47:05;8.30;;;3.70;;
59587;SDS011;45412;54.472;18.464;2022-12-31T12:49:55;9.40;;;3.60;;
59587;SDS011;45412;54.472;18.464;2022-12-31T12:56:11;8.10;;;3.70;;
59587;SDS011;45412;54.472;18.464;2022-12-31T12:59:48;8.70;;;3.60;;
59587;SDS011;45412;54.472;18.464;2022-12-31T13:16:52;9.50;;;3.90;;
59587;SDS011;45412;54.472;18.464;2022-12-31T13:20:11;9.30;;;4.40;;
59587;SDS011;45412;54.472;18.464;2022-12-31T13:29:19;9.70;;;4.20;;
59587;SDS011;45412;54.472;18.464;2022-12-31T13:32:22;10.60;;;4.20;;
59587;SDS011;45412;54.472;18.464;2022-12-31T13:35:42;10.10;;;4.60;;
59587;SDS011;45412;54.472;18.464;2022-12-31T13:39:03;9.20;;;4.30;;
59587;SDS011;45412;54.472;18.464;2022-12-31T13:42:12;10.20;;;4.70;;
59587;SDS011;45412;54.472;18.464;2022-12-31T13:45:18;10.30;;;4.50;;
59587;SDS011;45412;54.472;18.464;2022-12-31T13:48:13;9.60;;;4.30;;
59587;SDS011;45412;54.472;18.464;2022-12-31T13:51:13;10.60;;;4.50;;
59587;SDS011;45412;54.472;18.464;2022-12-31T13:54:27;10.00;;;4.80;;
59587;SDS011;45412;54.472;18.464;2022-12-31T13:57:22;10.40;;;5.00;;
59587;SDS011;45412;54.472;18.464;2022-12-31T14:00:50;9.60;;;5.00;;
59587;SDS011;45412;54.472;18.464;2022-12-31T14:04:06;11.20;;;5.50;;
59587;SDS011;45412;54.472;18.464;2022-12-31T14:09:59;9.40;;;4.70;;
59587;SDS011;45412;54.472;18.464;2022-12-31T14:22:33;9.10;;;4.30;;
59587;SDS011;45412;54.472;18.464;2022-12-31T14:26:00;8.80;;;4.00;;
59587;SDS011;45412;54.472;18.464;2022-12-31T14:35:31;9.70;;;4.00;;
59587;SDS011;45412;54.472;18.464;2022-12-31T14:42:03;7.90;;;3.90;;
59587;SDS011;45412;54.472;18.464;2022-12-31T14:51:41;7.40;;;3.10;;
59587;SDS011;45412;54.472;18.464;2022-12-31T14:54:36;9.40;;;4.00;;
59587;SDS011;45412;54.472;18.464;2022-12-31T14:57:32;8.50;;;3.50;;
59587;SDS011;45412;54.472;18.464;2022-12-31T15:01:42;9.10;;;4.20;;
59587;SDS011;45412;54.472;18.464;2022-12-31T15:04:13;9.60;;;4.30;;
59587;SDS011;45412;54.472;18.464;2022-12-31T15:10:14;10.30;;;4.30;;
59587;SDS011;45412;54.472;18.464;2022-12-31T15:23:00;8.10;;;3.50;;
59587;SDS011;45412;54.472;18.464;2022-12-31T15:25:57;8.40;;;4.10;;
59587;SDS011;45412;54.472;18.464;2022-12-31T15:28:57;10.20;;;4.20;;
59587;SDS011;45412;54.472;18.464;2022-12-31T15:31:51;10.90;;;4.20;;
59587;SDS011;45412;54.472;18.464;2022-12-31T15:34:41;9.70;;;4.30;;
59587;SDS011;45412;54.472;18.464;2022-12-31T15:37:35;8.70;;;3.90;;
59587;SDS011;45412;54.472;18.464;2022-12-31T15:40:23;8.30;;;3.90;;
59587;SDS011;45412;54.472;18.464;2022-12-31T15:46:18;9.70;;;4.10;;
59587;SDS011;45412;54.472;18.464;2022-12-31T15:49:17;9.40;;;3.70;;
59587;SDS011;45412;54.472;18.464;2022-12-31T15:52:25;8.40;;;3.40;;
59587;SDS011;45412;54.472;18.464;2022-12-31T15:55:45;7.80;;;3.50;;
59587;SDS011;45412;54.472;18.464;2022-12-31T15:58:37;8.90;;;3.40;;
59587;SDS011;45412;54.472;18.464;2022-12-31T16:01:29;7.50;;;3.40;;
59587;SDS011;45412;54.472;18.464;2022-12-31T16:04:28;8.50;;;4.00;;
59587;SDS011;45412;54.472;18.464;2022-12-31T16:07:21;9.10;;;3.90;;
59587;SDS011;45412;54.472;18.464;2022-12-31T16:10:15;8.40;;;3.60;;
59587;SDS011;45412;54.472;18.464;2022-12-31T16:13:22;8.10;;;3.70;;
59587;SDS011;45412;54.472;18.464;2022-12-31T16:16:22;8.60;;;3.60;;
59587;SDS011;45412;54.472;18.464;2022-12-31T16:19:43;8.10;;;3.70;;
59587;SDS011;45412;54.472;18.464;2022-12-31T16:22:37;8.20;;;3.10;;
59587;SDS011;45412;54.472;18.464;2022-12-31T16:25:28;7.50;;;3.20;;
59587;SDS011;45412;54.472;18.464;2022-12-31T16:28:22;9.40;;;3.90;;
59587;SDS011;45412;54.472;18.464;2022-12-31T16:31:16;8.60;;;3.70;;
59587;SDS011;45412;54.472;18.464;2022-12-31T16:34:12;7.90;;;3.50;;
59587;SDS011;45412;54.472;18.464;2022-12-31T16:37:13;9.10;;;3.40;;
59587;SDS011;45412;54.472;18.464;2022-12-31T16:40:11;7.50;;;3.00;;
59587;SDS011;45412;54.472;18.464;2022-12-31T16:43:24;9.10;;;2.80;;
59587;SDS011;45412;54.472;18.464;2022-12-31T16:46:27;8.90;;;3.00;;
59587;SDS011;45412;54.472;18.464;2022-12-31T16:49:19;7.70;;;2.80;;
59587;SDS011;45412;54.472;18.464;2022-12-31T16:52:23;7.20;;;2.40;;
59587;SDS011;45412;54.472;18.464;2022-12-31T16:55:24;7.10;;;2.70;;
59587;SDS011;45412;54.472;18.464;2022-12-31T16:58:18;7.70;;;2.70;;
59587;SDS011;45412;54.472;18.464;2022-12-31T17:04:08;6.20;;;2.50;;
59587;SDS011;45412;54.472;18.464;2022-12-31T17:10:32;7.10;;;2.40;;
59587;SDS011;45412;54.472;18.464;2022-12-31T17:13:28;6.50;;;2.70;;
59587;SDS011;45412;54.472;18.464;2022-12-31T17:16:19;6.90;;;2.50;;
59587;SDS011;45412;54.472;18.464;2022-12-31T17:20:04;7.90;;;3.00;;
59587;SDS011;45412;54.472;18.464;2022-12-31T17:22:41;8.30;;;2.40;;
59587;SDS011;45412;54.472;18.464;2022-12-31T17:25:32;8.20;;;2.50;;
59587;SDS011;45412;54.472;18.464;2022-12-31T17:28:23;6.80;;;2.30;;
59587;SDS011;45412;54.472;18.464;2022-12-31T17:31:28;6.50;;;2.70;;
59587;SDS011;45412;54.472;18.464;2022-12-31T17:34:19;7.60;;;2.70;;
59587;SDS011;45412;54.472;18.464;2022-12-31T17:37:15;7.20;;;2.40;;
59587;SDS011;45412;54.472;18.464;2022-12-31T17:40:34;7.60;;;2.30;;
59587;SDS011;45412;54.472;18.464;2022-12-31T17:43:40;7.30;;;2.60;;
59587;SDS011;45412;54.472;18.464;2022-12-31T17:46:29;6.50;;;2.20;;
59587;SDS011;45412;54.472;18.464;2022-12-31T17:49:23;8.30;;;3.10;;
59587;SDS011;45412;54.472;18.464;2022-12-31T17:52:16;7.60;;;2.80;;
59587;SDS011;45412;54.472;18.464;2022-12-31T17:55:05;6.50;;;2.40;;
59587;SDS011;45412;54.472;18.464;2022-12-31T17:57:55;6.50;;;2.40;;
59587;SDS011;45412;54.472;18.464;2022-12-31T18:00:44;8.20;;;2.80;;
59587;SDS011;45412;54.472;18.464;2022-12-31T18:03:33;7.90;;;2.80;;
59587;SDS011;45412;54.472;18.464;2022-12-31T18:06:21;10.70;;;3.50;;
59587;SDS011;45412;54.472;18.464;2022-12-31T18:09:10;8.40;;;2.80;;
59587;SDS011;45412;54.472;18.464;2022-12-31T18:12:03;7.10;;;2.50;;
59587;SDS011;45412;54.472;18.464;2022-12-31T18:14:53;7.20;;;2.20;;
59587;SDS011;45412;54.472;18.464;2022-12-31T18:17:42;6.90;;;2.40;;
59587;SDS011;45412;54.472;18.464;2022-12-31T18:20:30;7.00;;;2.30;;
59587;SDS011;45412;54.472;18.464;2022-12-31T18:23:32;6.70;;;2.10;;
59587;SDS011;45412;54.472;18.464;2022-12-31T18:26:27;6.20;;;2.20;;
59587;SDS011;45412;54.472;18.464;2022-12-31T18:29:17;6.40;;;2.30;;
59587;SDS011;45412;54.472;18.464;2022-12-31T18:32:27;8.00;;;3.20;;
59587;SDS011;45412;54.472;18.464;2022-12-31T18:35:19;9.00;;;2.80;;
59587;SDS011;45412;54.472;18.464;2022-12-31T18:38:28;6.70;;;2.20;;
59587;SDS011;45412;54.472;18.464;2022-12-31T18:41:43;6.80;;;2.10;;
59587;SDS011;45412;54.472;18.464;2022-12-31T18:44:35;7.20;;;2.40;;
59587;SDS011;45412;54.472;18.464;2022-12-31T18:47:23;7.20;;;2.10;;
59587;SDS011;45412;54.472;18.464;2022-12-31T18:50:15;7.00;;;1.90;;
59587;SDS011;45412;54.472;18.464;2022-12-31T18:53:04;7.40;;;2.00;;
59587;SDS011;45412;54.472;18.464;2022-12-31T18:55:55;5.80;;;1.80;;
59587;SDS011;45412;54.472;18.464;2022-12-31T18:58:45;7.40;;;2.10;;
59587;SDS011;45412;54.472;18.464;2022-12-31T19:01:36;7.10;;;2.30;;
59587;SDS011;45412;54.472;18.464;2022-12-31T19:04:26;5.40;;;2.20;;
59587;SDS011;45412;54.472;18.464;2022-12-31T19:07:15;7.70;;;2.60;;
59587;SDS011;45412;54.472;18.464;2022-12-31T19:10:04;6.40;;;2.30;;
59587;SDS011;45412;54.472;18.464;2022-12-31T19:12:53;7.40;;;2.20;;
59587;SDS011;45412;54.472;18.464;2022-12-31T19:15:46;7.50;;;2.10;;
59587;SDS011;45412;54.472;18.464;2022-12-31T19:18:37;9.80;;;3.40;;
59587;SDS011;45412;54.472;18.464;2022-12-31T19:21:27;7.00;;;2.10;;
59587;SDS011;45412;54.472;18.464;2022-12-31T19:27:13;6.50;;;2.00;;
59587;SDS011;45412;54.472;18.464;2022-12-31T19:30:02;6.60;;;2.10;;
59587;SDS011;45412;54.472;18.464;2022-12-31T19:32:53;7.10;;;2.40;;
59587;SDS011;45412;54.472;18.464;2022-12-31T19:35:43;7.30;;;2.10;;
59587;SDS011;45412;54.472;18.464;2022-12-31T19:38:31;8.00;;;2.30;;
59587;SDS011;45412;54.472;18.464;2022-12-31T19:41:20;7.40;;;2.80;;
59587;SDS011;45412;54.472;18.464;2022-12-31T19:44:18;7.90;;;2.50;;
59587;SDS011;45412;54.472;18.464;2022-12-31T19:47:10;8.00;;;2.20;;
59587;SDS011;45412;54.472;18.464;2022-12-31T19:50:00;8.00;;;3.00;;
59587;SDS011;45412;54.472;18.464;2022-12-31T19:52:49;7.60;;;2.80;;
59587;SDS011;45412;54.472;18.464;2022-12-31T19:55:39;8.50;;;3.20;;
59587;SDS011;45412;54.472;18.464;2022-12-31T19:58:28;9.00;;;3.00;;
59587;SDS011;45412;54.472;18.464;2022-12-31T20:01:19;16.90;;;8.50;;
59587;SDS011;45412;54.472;18.464;2022-12-31T20:04:09;8.20;;;3.00;;
59587;SDS011;45412;54.472;18.464;2022-12-31T20:06:58;7.40;;;2.40;;
59587;SDS011;45412;54.472;18.464;2022-12-31T20:09:47;7.30;;;2.40;;
59587;SDS011;45412;54.472;18.464;2022-12-31T20:12:36;7.20;;;2.30;;
59587;SDS011;45412;54.472;18.464;2022-12-31T20:15:31;6.40;;;1.80;;
59587;SDS011;45412;54.472;18.464;2022-12-31T20:18:20;7.50;;;2.10;;
59587;SDS011;45412;54.472;18.464;2022-12-31T20:21:11;7.30;;;2.50;;
59587;SDS011;45412;54.472;18.464;2022-12-31T20:24:05;8.70;;;2.30;;
59587;SDS011;45412;54.472;18.464;2022-12-31T20:26:53;7.70;;;2.40;;
59587;SDS011;45412;54.472;18.464;2022-12-31T20:29:41;6.60;;;2.40;;
59587;SDS011;45412;54.472;18.464;2022-12-31T20:32:29;7.90;;;2.40;;
59587;SDS011;45412;54.472;18.464;2022-12-31T20:35:18;8.20;;;3.20;;
59587;SDS011;45412;54.472;18.464;2022-12-31T20:38:07;7.10;;;2.60;;
59587;SDS011;45412;54.472;18.464;2022-12-31T20:41:02;8.40;;;2.50;;
59587;SDS011;45412;54.472;18.464;2022-12-31T20:43:57;6.50;;;2.10;;
59587;SDS011;45412;54.472;18.464;2022-12-31T20:46:46;7.90;;;2.30;;
59587;SDS011;45412;54.472;18.464;2022-12-31T20:49:35;7.30;;;2.10;;
59587;SDS011;45412;54.472;18.464;2022-12-31T20:52:44;5.40;;;1.60;;
59587;SDS011;45412;54.472;18.464;2022-12-31T20:55:32;6.10;;;1.70;;
59587;SDS011;45412;54.472;18.464;2022-12-31T20:58:25;7.90;;;2.00;;
59587;SDS011;45412;54.472;18.464;2022-12-31T21:01:14;7.50;;;1.80;;
59587;SDS011;45412;54.472;18.464;2022-12-31T21:04:03;8.00;;;2.10;;
59587;SDS011;45412;54.472;18.464;2022-12-31T21:06:53;33.30;;;21.80;;
59587;SDS011;45412;54.472;18.464;2022-12-31T21:09:41;14.80;;;7.90;;
59587;SDS011;45412;54.472;18.464;2022-12-31T21:12:31;15.00;;;7.50;;
59587;SDS011;45412;54.472;18.464;2022-12-31T21:15:31;25.50;;;14.70;;
59587;SDS011;45412;54.472;18.464;2022-12-31T21:18:21;18.50;;;10.30;;
59587;SDS011;45412;54.472;18.464;2022-12-31T21:21:10;18.40;;;9.80;;
59587;SDS011;45412;54.472;18.464;2022-12-31T21:23:58;8.70;;;4.10;;
59587;SDS011;45412;54.472;18.464;2022-12-31T21:26:47;8.70;;;3.40;;
59587;SDS011;45412;54.472;18.464;2022-12-31T21:29:35;7.10;;;2.70;;
59587;SDS011;45412;54.472;18.464;2022-12-31T21:32:44;6.60;;;2.50;;
59587;SDS011;45412;54.472;18.464;2022-12-31T21:35:35;6.60;;;2.10;;
59587;SDS011;45412;54.472;18.464;2022-12-31T21:38:35;9.10;;;3.30;;